Time;durP1;ratioP1;P1;durP2;ratioP2;P2;SDS_P1;SDS_P2;PMS_P1;PMS_P2;Temp;Humidity;BMP_temperature;BMP_pressure;BME280_temperature;BME280_humidity;BME280_pressure;Samples;Min_cycle;Max_cycle;Signal;HPM_P1;HPM_P2
2023/07/14 00:00:25;;;;;;;2.90;1.80;;;;;;;;;;5054406;28;20040;-75
2023/07/14 00:02:53;;;;;;;2.40;1.70;;;;;;;;;;5069252;28;20468;-75
2023/07/14 00:05:25;;;;;;;2.35;1.67;;;;;;;;;;5053757;28;20120;-75
2023/07/14 00:07:51;;;;;;;3.13;1.75;;;;;;;;;;5052750;28;20025;-75
2023/07/14 00:10:25;;;;;;;3.60;1.70;;;;;;;;;;5053900;28;20025;-75
2023/07/14 00:12:51;;;;;;;2.55;1.88;;;;;;;;;;5054082;28;20388;-75
2023/07/14 00:15:17;;;;;;;2.80;1.90;;;;;;;;;;5052196;28;20035;-75
2023/07/14 00:17:43;;;;;;;2.10;1.90;;;;;;;;;;5052484;28;20060;-76
2023/07/14 00:20:17;;;;;;;7.53;1.90;;;;;;;;;;5035738;28;20069;-76
2023/07/14 00:22:43;;;;;;;6.88;1.83;;;;;;;;;;5069237;28;20399;-75
2023/07/14 00:25:13;;;;;;;1.83;1.42;;;;;;;;;;5052530;28;20475;-75
2023/07/14 00:27:38;;;;;;;4.57;1.80;;;;;;;;;;5052114;28;20051;-75
2023/07/14 00:30:14;;;;;;;2.88;1.75;;;;;;;;;;5053274;28;20135;-76
2023/07/14 00:32:39;;;;;;;2.90;1.55;;;;;;;;;;5069040;28;20032;-76
2023/07/14 00:35:25;;;;;;;3.20;1.70;;;;;;;;;;5053897;28;20025;-75
2023/07/14 00:37:52;;;;;;;2.60;1.60;;;;;;;;;;5052032;28;20025;-75
2023/07/14 00:40:21;;;;;;;3.60;1.58;;;;;;;;;;5068818;28;20044;-76
2023/07/14 00:42:51;;;;;;;3.17;1.88;;;;;;;;;;5052004;28;20074;-75
2023/07/14 00:45:19;;;;;;;2.00;1.60;;;;;;;;;;5069116;28;20028;-75
2023/07/14 00:47:52;;;;;;;3.08;1.67;;;;;;;;;;5069342;28;20059;-76
2023/07/14 00:50:42;;;;;;;2.83;1.60;;;;;;;;;;5070990;28;20017;-76
2023/07/14 00:53:23;;;;;;;2.58;1.58;;;;;;;;;;5039401;28;20521;-76
2023/07/14 00:56:25;;;;;;;3.10;1.80;;;;;;;;;;5072828;28;20115;-75
2023/07/14 00:58:51;;;;;;;2.97;1.63;;;;;;;;;;5072803;28;20024;-76
2023/07/14 01:01:21;;;;;;;3.42;1.80;;;;;;;;;;5055945;28;20373;-76
2023/07/14 01:03:57;;;;;;;2.42;1.63;;;;;;;;;;5057244;28;20481;-75
2023/07/14 01:06:38;;;;;;;2.50;1.80;;;;;;;;;;5072581;28;20025;-75
2023/07/14 01:09:08;;;;;;;2.70;1.50;;;;;;;;;;5072408;28;20025;-75
2023/07/14 01:11:54;;;;;;;2.22;1.60;;;;;;;;;;5056127;28;20067;-75
2023/07/14 01:14:22;;;;;;;4.78;1.58;;;;;;;;;;5055507;28;20028;-75
2023/07/14 01:16:51;;;;;;;2.40;1.67;;;;;;;;;;5072370;28;20028;-75
2023/07/14 01:19:43;;;;;;;2.08;1.30;;;;;;;;;;5072007;28;20025;-75
2023/07/14 01:22:27;;;;;;;1.45;1.35;;;;;;;;;;5072114;28;20036;-76
2023/07/14 01:25:37;;;;;;;3.33;1.73;;;;;;;;;;5072235;28;20083;-76
2023/07/14 01:28:07;;;;;;;2.42;1.65;;;;;;;;;;5049700;28;20094;-76
2023/07/14 01:30:33;;;;;;;3.08;1.70;;;;;;;;;;5056477;28;20056;-76
2023/07/14 01:32:59;;;;;;;1.75;1.40;;;;;;;;;;5055254;28;20032;-75
2023/07/14 01:35:34;;;;;;;2.28;1.42;;;;;;;;;;5057117;28;20037;-76
2023/07/14 01:37:59;;;;;;;1.70;1.52;;;;;;;;;;5072242;28;20021;-75
2023/07/14 01:40:25;;;;;;;3.05;1.67;;;;;;;;;;5071970;28;20388;-76
2023/07/14 01:42:56;;;;;;;1.42;1.33;;;;;;;;;;5039414;28;20017;-75
2023/07/14 01:45:22;;;;;;;2.60;1.60;;;;;;;;;;5071853;28;20027;-75
2023/07/14 01:47:54;;;;;;;3.83;1.50;;;;;;;;;;5055685;28;20036;-75
2023/07/14 01:50:25;;;;;;;2.38;1.85;;;;;;;;;;5054991;28;20032;-75
2023/07/14 01:52:54;;;;;;;1.73;1.40;;;;;;;;;;5056196;28;20391;-75
2023/07/14 01:55:20;;;;;;;4.22;1.45;;;;;;;;;;5055003;28;20400;-75
2023/07/14 01:57:47;;;;;;;1.80;1.35;;;;;;;;;;5054858;28;20063;-75
2023/07/14 02:00:13;;;;;;;3.28;2.38;;;;;;;;;;5071031;28;20028;-75
2023/07/14 02:02:39;;;;;;;2.55;1.65;;;;;;;;;;5054758;28;20033;-75
2023/07/14 02:05:26;;;;;;;3.22;1.60;;;;;;;;;;5071513;28;20029;-76
2023/07/14 02:07:54;;;;;;;2.28;1.60;;;;;;;;;;5055512;28;20045;-75
2023/07/14 02:10:20;;;;;;;3.42;1.90;;;;;;;;;;5071916;28;20071;-75
2023/07/14 02:12:46;;;;;;;1.65;1.33;;;;;;;;;;5071323;28;20033;-75
2023/07/14 02:15:23;;;;;;;2.95;1.63;;;;;;;;;;5055877;28;20020;-75
2023/07/14 02:17:49;;;;;;;2.63;1.60;;;;;;;;;;5071422;28;20498;-75
2023/07/14 02:20:44;;;;;;;3.92;1.80;;;;;;;;;;5071469;28;20448;-75
2023/07/14 02:23:22;;;;;;;3.97;1.90;;;;;;;;;;5041622;28;20029;-75
2023/07/14 02:26:10;;;;;;;7.07;2.60;;;;;;;;;;5054604;28;20488;-75
2023/07/14 02:28:35;;;;;;;3.58;1.90;;;;;;;;;;5041769;28;20036;-75
2023/07/14 02:31:08;;;;;;;2.67;1.67;;;;;;;;;;5071020;28;20510;-75
2023/07/14 02:33:36;;;;;;;2.72;1.83;;;;;;;;;;5054153;28;20017;-75
2023/07/14 02:36:19;;;;;;;4.40;2.00;;;;;;;;;;5070918;28;20479;-75
2023/07/14 02:38:44;;;;;;;3.95;1.90;;;;;;;;;;5054065;28;20116;-76
2023/07/14 02:41:17;;;;;;;3.08;1.88;;;;;;;;;;5053968;28;20128;-75
2023/07/14 02:43:43;;;;;;;3.00;1.90;;;;;;;;;;5055272;28;20027;-75
2023/07/14 02:46:20;;;;;;;2.35;1.77;;;;;;;;;;5054315;28;20024;-75
2023/07/14 02:48:49;;;;;;;2.33;1.67;;;;;;;;;;5070952;28;20021;-75
2023/07/14 02:51:14;;;;;;;2.50;1.73;;;;;;;;;;5070735;28;20052;-75
2023/07/14 02:53:40;;;;;;;2.53;1.83;;;;;;;;;;5053835;28;20075;-75
2023/07/14 02:56:05;;;;;;;2.83;2.13;;;;;;;;;;5055213;28;20388;-75
2023/07/14 02:58:32;;;;;;;2.08;1.80;;;;;;;;;;5053942;28;20098;-75
2023/07/14 03:00:57;;;;;;;2.60;1.90;;;;;;;;;;5053687;28;20392;-76
2023/07/14 03:03:23;;;;;;;3.00;1.90;;;;;;;;;;5070343;28;20041;-75
2023/07/14 03:05:50;;;;;;;2.65;1.92;;;;;;;;;;5054841;28;20047;-75
2023/07/14 03:08:17;;;;;;;2.53;1.70;;;;;;;;;;5070458;28;20468;-75
2023/07/14 03:10:44;;;;;;;2.60;1.90;;;;;;;;;;5070199;28;20029;-76
2023/07/14 03:13:10;;;;;;;4.10;2.40;;;;;;;;;;5069196;28;20028;-75
2023/07/14 03:15:35;;;;;;;2.60;2.13;;;;;;;;;;5053649;28;20046;-75
2023/07/14 03:18:01;;;;;;;3.83;2.72;;;;;;;;;;5053353;28;20100;-75
2023/07/14 03:20:26;;;;;;;2.40;1.90;;;;;;;;;;5054592;28;20064;-75
2023/07/14 03:22:52;;;;;;;4.70;2.33;;;;;;;;;;5070220;28;20056;-75
2023/07/14 03:25:17;;;;;;;2.70;2.25;;;;;;;;;;5069983;28;20025;-75
2023/07/14 03:27:45;;;;;;;3.28;2.45;;;;;;;;;;5069932;28;20037;-75
2023/07/14 03:30:11;;;;;;;2.65;1.85;;;;;;;;;;5069242;28;20052;-75
2023/07/14 03:32:36;;;;;;;2.30;2.05;;;;;;;;;;5052944;28;20041;-75
2023/07/14 03:35:02;;;;;;;2.85;1.92;;;;;;;;;;5069947;28;20029;-75
2023/07/14 03:37:27;;;;;;;2.83;1.90;;;;;;;;;;5053027;28;20024;-75
2023/07/14 03:39:53;;;;;;;3.20;2.33;;;;;;;;;;5069520;28;20476;-74
2023/07/14 03:42:18;;;;;;;2.72;2.10;;;;;;;;;;5054172;28;20082;-75
2023/07/14 03:44:43;;;;;;;2.55;2.00;;;;;;;;;;5053002;28;20032;-75
2023/07/14 03:47:09;;;;;;;5.05;2.15;;;;;;;;;;5054193;28;20456;-75
2023/07/14 03:49:34;;;;;;;3.67;2.17;;;;;;;;;;5054427;28;20025;-76
2023/07/14 03:52:00;;;;;;;3.60;2.30;;;;;;;;;;5052528;28;20556;-75
2023/07/14 03:54:25;;;;;;;3.22;2.03;;;;;;;;;;5069304;28;20549;-75
2023/07/14 03:56:54;;;;;;;4.15;2.20;;;;;;;;;;5069181;28;20415;-75
2023/07/14 03:59:20;;;;;;;2.47;2.25;;;;;;;;;;5068815;28;20058;-75
2023/07/14 04:01:45;;;;;;;4.30;2.30;;;;;;;;;;5052425;28;20071;-75
2023/07/14 04:04:10;;;;;;;4.03;2.30;;;;;;;;;;5069195;28;20103;-75
2023/07/14 04:06:36;;;;;;;3.35;2.30;;;;;;;;;;5069323;28;20078;-75
2023/07/14 04:09:01;;;;;;;4.53;2.38;;;;;;;;;;5052323;28;20087;-75
2023/07/14 04:11:27;;;;;;;3.60;2.33;;;;;;;;;;5053620;28;20032;-76
2023/07/14 04:13:52;;;;;;;2.55;2.35;;;;;;;;;;5053511;28;20384;-75
2023/07/14 04:16:18;;;;;;;3.75;2.33;;;;;;;;;;5053567;28;20036;-76
2023/07/14 04:18:44;;;;;;;3.38;2.13;;;;;;;;;;5054130;28;20480;-76
2023/07/14 04:21:13;;;;;;;4.15;2.45;;;;;;;;;;5069453;28;20093;-76
2023/07/14 04:23:39;;;;;;;4.20;2.67;;;;;;;;;;5068996;28;20045;-76
2023/07/14 04:26:07;;;;;;;4.45;2.53;;;;;;;;;;5069145;28;20483;-76
2023/07/14 04:28:34;;;;;;;3.28;2.72;;;;;;;;;;5068720;28;20036;-76
2023/07/14 04:31:02;;;;;;;2.80;1.90;;;;;;;;;;5068745;28;20190;-75
2023/07/14 04:33:28;;;;;;;4.60;2.30;;;;;;;;;;5068494;28;20392;-75
2023/07/14 04:35:55;;;;;;;1.73;1.63;;;;;;;;;;5053607;28;20033;-75
2023/07/14 04:38:21;;;;;;;5.57;2.28;;;;;;;;;;5053881;28;20025;-75
2023/07/14 04:40:47;;;;;;;2.17;1.90;;;;;;;;;;5053285;28;20476;-75
2023/07/14 04:43:13;;;;;;;4.45;2.30;;;;;;;;;;5069024;28;20028;-76
2023/07/14 04:45:40;;;;;;;4.28;2.45;;;;;;;;;;5034223;28;20036;-76
2023/07/14 04:48:07;;;;;;;4.25;2.10;;;;;;;;;;5052506;28;20051;-76
2023/07/14 04:50:33;;;;;;;4.65;2.10;;;;;;;;;;5051160;28;20079;-75
2023/07/14 04:52:58;;;;;;;4.05;1.90;;;;;;;;;;5052387;28;20033;-75
2023/07/14 04:55:26;;;;;;;5.85;2.70;;;;;;;;;;5052756;28;20028;-76
2023/07/14 04:57:51;;;;;;;7.45;2.00;;;;;;;;;;5052388;28;20036;-76
2023/07/14 05:00:20;;;;;;;3.42;2.05;;;;;;;;;;5052274;28;20391;-76
2023/07/14 05:02:46;;;;;;;3.30;2.03;;;;;;;;;;5052298;28;20384;-76
2023/07/14 05:05:20;;;;;;;4.55;2.10;;;;;;;;;;5034490;28;20029;-76
2023/07/14 05:07:48;;;;;;;3.63;2.10;;;;;;;;;;5067887;28;20032;-76
2023/07/14 05:10:13;;;;;;;3.28;1.60;;;;;;;;;;5067546;28;20096;-76
2023/07/14 05:12:38;;;;;;;4.72;2.13;;;;;;;;;;5052603;28;20040;-76
2023/07/14 05:15:05;;;;;;;4.45;1.92;;;;;;;;;;5052839;28;20021;-76
2023/07/14 05:17:33;;;;;;;3.63;1.60;;;;;;;;;;5052907;28;20028;-75
2023/07/14 05:19:58;;;;;;;2.97;1.60;;;;;;;;;;5068496;28;20092;-75
2023/07/14 05:22:24;;;;;;;2.60;1.73;;;;;;;;;;5068726;28;20032;-76
2023/07/14 05:24:49;;;;;;;7.85;1.92;;;;;;;;;;5053038;28;20119;-76
2023/07/14 05:27:15;;;;;;;3.38;2.00;;;;;;;;;;5052884;28;20418;-76
2023/07/14 05:29:41;;;;;;;3.92;1.60;;;;;;;;;;5068601;28;20029;-76
2023/07/14 05:32:06;;;;;;;4.90;1.80;;;;;;;;;;5034824;28;20103;-75
2023/07/14 05:34:32;;;;;;;2.33;1.70;;;;;;;;;;5050976;28;20041;-76
2023/07/14 05:36:57;;;;;;;4.13;1.63;;;;;;;;;;5056640;28;20031;-76
2023/07/14 05:39:23;;;;;;;3.67;1.80;;;;;;;;;;5056681;28;20033;-76
2023/07/14 05:41:48;;;;;;;1.88;1.58;;;;;;;;;;5056755;28;20055;-76
2023/07/14 05:44:14;;;;;;;1.85;1.60;;;;;;;;;;5072204;28;20108;-76
2023/07/14 05:46:39;;;;;;;3.40;1.60;;;;;;;;;;5056604;28;20075;-76
2023/07/14 05:49:05;;;;;;;3.63;1.75;;;;;;;;;;5071863;28;20033;-76
2023/07/14 05:51:31;;;;;;;3.10;1.55;;;;;;;;;;5056421;28;20036;-76
2023/07/14 05:53:56;;;;;;;2.45;1.50;;;;;;;;;;5071906;28;20029;-76
2023/07/14 05:56:22;;;;;;;2.55;1.60;;;;;;;;;;5057076;28;20033;-76
2023/07/14 05:58:47;;;;;;;5.47;1.63;;;;;;;;;;5056176;28;20033;-76
2023/07/14 06:01:13;;;;;;;2.78;1.33;;;;;;;;;;5056098;28;20033;-76
2023/07/14 06:03:38;;;;;;;2.05;1.52;;;;;;;;;;5056119;28;20052;-76
2023/07/14 06:06:05;;;;;;;2.65;1.48;;;;;;;;;;5071590;28;20387;-76
2023/07/14 06:08:30;;;;;;;2.53;1.60;;;;;;;;;;5054834;28;20547;-76
2023/07/14 06:10:56;;;;;;;3.20;1.80;;;;;;;;;;5056006;28;20120;-76
2023/07/14 06:13:22;;;;;;;2.40;1.40;;;;;;;;;;5055800;28;20104;-76
2023/07/14 06:15:51;;;;;;;2.55;1.58;;;;;;;;;;5071430;28;20036;-75
2023/07/14 06:18:17;;;;;;;2.35;1.50;;;;;;;;;;5071565;28;20024;-75
2023/07/14 06:20:42;;;;;;;3.63;1.52;;;;;;;;;;5055740;28;20057;-75
2023/07/14 06:23:08;;;;;;;4.80;1.70;;;;;;;;;;5071503;28;20064;-76
2023/07/14 06:25:33;;;;;;;2.67;1.30;;;;;;;;;;5056059;28;20086;-75
2023/07/14 06:28:00;;;;;;;3.65;1.42;;;;;;;;;;5055692;28;20033;-76
2023/07/14 06:30:25;;;;;;;4.00;1.77;;;;;;;;;;5071253;28;20087;-76
2023/07/14 06:32:51;;;;;;;3.15;1.70;;;;;;;;;;5054365;28;20454;-76
2023/07/14 06:35:18;;;;;;;5.05;1.40;;;;;;;;;;5055599;28;20025;-75
2023/07/14 06:37:43;;;;;;;4.47;1.45;;;;;;;;;;5071000;28;20047;-75
2023/07/14 06:40:09;;;;;;;1.95;1.48;;;;;;;;;;5055314;28;20029;-75
2023/07/14 06:42:35;;;;;;;7.45;1.67;;;;;;;;;;5070761;28;20032;-75
2023/07/14 06:45:02;;;;;;;4.78;1.70;;;;;;;;;;5070927;28;20033;-74
2023/07/14 06:47:27;;;;;;;2.58;1.42;;;;;;;;;;5070822;28;20064;-75
2023/07/14 06:49:53;;;;;;;2.85;1.92;;;;;;;;;;5055368;28;20060;-75
2023/07/14 06:52:18;;;;;;;3.35;1.70;;;;;;;;;;5053929;28;20040;-76
2023/07/14 06:54:45;;;;;;;6.60;1.80;;;;;;;;;;5055379;28;20491;-75
2023/07/14 06:57:10;;;;;;;7.53;1.88;;;;;;;;;;5054962;28;20059;-76
2023/07/14 06:59:36;;;;;;;2.75;2.13;;;;;;;;;;5070699;28;20028;-75
2023/07/14 07:02:01;;;;;;;6.90;1.92;;;;;;;;;;5053601;28;20502;-75
2023/07/14 07:04:27;;;;;;;3.08;1.92;;;;;;;;;;5070365;28;20104;-75
2023/07/14 07:06:53;;;;;;;4.50;2.42;;;;;;;;;;5053643;28;20426;-75
2023/07/14 07:09:19;;;;;;;3.72;1.90;;;;;;;;;;5055060;28;20031;-75
2023/07/14 07:11:44;;;;;;;2.53;1.80;;;;;;;;;;5053531;28;20067;-75
2023/07/14 07:14:09;;;;;;;5.25;2.15;;;;;;;;;;5053317;28;20032;-75
2023/07/14 07:16:36;;;;;;;3.78;2.15;;;;;;;;;;5054721;28;20033;-75
2023/07/14 07:19:01;;;;;;;9.38;2.10;;;;;;;;;;5054923;28;20082;-75
2023/07/14 07:21:27;;;;;;;2.88;1.77;;;;;;;;;;5070369;28;20438;-75
2023/07/14 07:23:52;;;;;;;3.72;2.30;;;;;;;;;;5053195;28;20062;-75
2023/07/14 07:26:17;;;;;;;3.38;2.03;;;;;;;;;;5053239;28;20033;-75
2023/07/14 07:28:43;;;;;;;3.50;1.80;;;;;;;;;;5069946;28;20021;-75
2023/07/14 07:31:11;;;;;;;3.05;1.95;;;;;;;;;;5069692;28;20049;-75
2023/07/14 07:33:40;;;;;;;6.18;1.80;;;;;;;;;;5069931;28;20053;-76
2023/07/14 07:36:14;;;;;;;3.60;2.15;;;;;;;;;;5052863;28;20549;-75
2023/07/14 07:38:51;;;;;;;3.20;1.73;;;;;;;;;;5068599;28;20029;-75
2023/07/14 07:41:20;;;;;;;7.90;2.20;;;;;;;;;;5069969;28;20025;-76
2023/07/14 07:43:46;;;;;;;2.33;1.52;;;;;;;;;;5054188;28;20017;-75
2023/07/14 07:46:11;;;;;;;4.57;1.67;;;;;;;;;;5052544;28;20033;-75
2023/07/14 07:48:37;;;;;;;4.65;1.83;;;;;;;;;;5069577;28;20419;-76
2023/07/14 07:51:05;;;;;;;4.45;1.50;;;;;;;;;;5054047;28;20063;-76
2023/07/14 07:53:31;;;;;;;2.25;1.67;;;;;;;;;;5052675;28;20033;-76
2023/07/14 07:55:58;;;;;;;3.83;1.67;;;;;;;;;;5054488;28;20060;-76
2023/07/14 07:58:24;;;;;;;2.58;1.58;;;;;;;;;;5069274;28;20021;-75
2023/07/14 08:01:02;;;;;;;2.53;1.75;;;;;;;;;;5052625;28;20116;-75
2023/07/14 08:03:29;;;;;;;5.40;1.80;;;;;;;;;;5069371;28;20028;-75
2023/07/14 08:05:59;;;;;;;2.78;1.80;;;;;;;;;;5069096;28;20082;-76
2023/07/14 08:08:25;;;;;;;3.83;1.90;;;;;;;;;;5052485;28;20057;-78
2023/07/14 08:10:50;;;;;;;3.50;2.10;;;;;;;;;;5052431;28;20032;-78
2023/07/14 08:13:16;;;;;;;5.45;1.83;;;;;;;;;;5069310;28;20036;-74
2023/07/14 08:15:41;;;;;;;2.80;1.75;;;;;;;;;;5053578;28;20451;-77
2023/07/14 08:18:07;;;;;;;22.65;4.32;;;;;;;;;;5069102;28;20048;-77
2023/07/14 08:20:38;;;;;;;24.00;3.85;;;;;;;;;;5035862;28;20049;-76
2023/07/14 08:23:04;;;;;;;9.27;2.72;;;;;;;;;;5052683;28;20025;-76
2023/07/14 08:25:30;;;;;;;9.65;2.65;;;;;;;;;;5069231;28;20467;-77
2023/07/14 08:27:55;;;;;;;5.43;2.42;;;;;;;;;;5053393;28;20075;-76
2023/07/14 08:30:21;;;;;;;7.57;2.42;;;;;;;;;;5068757;28;20045;-76
2023/07/14 08:32:49;;;;;;;4.78;2.08;;;;;;;;;;5053413;28;20095;-77
2023/07/14 08:35:15;;;;;;;3.45;1.98;;;;;;;;;;5038606;28;20387;-77
2023/07/14 08:37:41;;;;;;;3.85;2.35;;;;;;;;;;5032229;28;20036;-77
2023/07/14 08:40:11;;;;;;;5.35;2.20;;;;;;;;;;5032316;28;20388;-77
2023/07/14 08:42:48;;;;;;;13.13;2.35;;;;;;;;;;5032077;28;20021;-77
2023/07/14 08:45:25;;;;;;;4.75;2.05;;;;;;;;;;5033513;28;20075;-77
2023/07/14 08:48:15;;;;;;;3.83;2.22;;;;;;;;;;5015659;28;20026;-77
2023/07/14 08:50:43;;;;;;;5.47;2.33;;;;;;;;;;5022154;28;20025;-77
2023/07/14 08:53:21;;;;;;;4.85;2.20;;;;;;;;;;5012607;28;20030;-77
2023/07/14 08:55:47;;;;;;;4.30;1.85;;;;;;;;;;4996049;28;20468;-77
2023/07/14 08:58:18;;;;;;;12.27;2.25;;;;;;;;;;4996145;28;20049;-77
2023/07/14 09:01:09;;;;;;;5.70;2.08;;;;;;;;;;5012858;28;20022;-77
2023/07/14 09:03:48;;;;;;;4.88;2.13;;;;;;;;;;5012164;28;20469;-77
2023/07/14 09:06:20;;;;;;;6.75;2.55;;;;;;;;;;4995832;28;20492;-77
2023/07/14 09:08:46;;;;;;;5.95;2.10;;;;;;;;;;5011950;28;20021;-77
2023/07/14 09:11:30;;;;;;;6.20;2.50;;;;;;;;;;5014980;28;20129;-77
2023/07/14 09:14:04;;;;;;;;;;;;;;;;;;5017918;28;20026;-77
2023/07/14 09:16:31;;;;;;;5.22;2.42;;;;;;;;;;5017233;28;19960;-77
2023/07/14 09:19:06;;;;;;;6.28;2.35;;;;;;;;;;5017429;28;20030;-77
2023/07/14 09:21:39;;;;;;;5.32;2.28;;;;;;;;;;5015902;28;20026;-78
2023/07/14 09:24:31;;;;;;;4.03;2.23;;;;;;;;;;5016171;28;20053;-77
2023/07/14 09:26:57;;;;;;;5.10;2.00;;;;;;;;;;5015999;28;20321;-77
2023/07/14 09:29:44;;;;;;;4.47;2.40;;;;;;;;;;4999388;28;20033;-78
2023/07/14 09:32:34;;;;;;;5.65;2.15;;;;;;;;;;4999445;28;20084;-77
2023/07/14 09:35:12;;;;;;;3.05;2.08;;;;;;;;;;4999423;28;20030;-78
2023/07/14 09:38:10;;;;;;;4.10;1.83;;;;;;;;;;5015720;28;20026;-77
2023/07/14 09:40:39;;;;;;;5.72;2.00;;;;;;;;;;5007408;28;20030;-78
2023/07/14 09:43:05;;;;;;;4.13;1.77;;;;;;;;;;5000042;28;20026;-78
2023/07/14 09:45:33;;;;;;;5.93;1.85;;;;;;;;;;4999162;28;20378;-77
2023/07/14 09:48:00;;;;;;;3.70;2.00;;;;;;;;;;5015901;28;20077;-78
2023/07/14 09:50:50;;;;;;;7.43;2.20;;;;;;;;;;5017090;28;20026;-77
2023/07/14 09:53:15;;;;;;;4.53;2.40;;;;;;;;;;5036656;28;20025;-77
2023/07/14 09:55:52;;;;;;;8.60;2.80;;;;;;;;;;5047349;28;20492;-77
2023/07/14 09:58:21;;;;;;;6.47;2.33;;;;;;;;;;5015680;28;20030;-77
2023/07/14 10:00:49;;;;;;;9.98;2.38;;;;;;;;;;5015325;28;20160;-77
2023/07/14 10:03:16;;;;;;;5.28;2.42;;;;;;;;;;5015879;28;20461;-77
2023/07/14 10:05:54;;;;;;;10.18;2.08;;;;;;;;;;4999305;28;20033;-77
2023/07/14 10:09:04;;;;;;;7.25;2.20;;;;;;;;;;5015338;28;20033;-77
2023/07/14 10:11:39;;;;;;;4.97;2.40;;;;;;;;;;4936888;29;20039;-78
2023/07/14 10:14:26;;;;;;;4.75;2.10;;;;;;;;;;4921337;29;20151;-78
2023/07/14 10:16:53;;;;;;;6.22;2.20;;;;;;;;;;4920674;29;20483;-78
2023/07/14 10:19:21;;;;;;;3.78;2.05;;;;;;;;;;4921000;29;20043;-77
2023/07/14 10:21:56;;;;;;;5.25;2.20;;;;;;;;;;4904864;29;20372;-77
2023/07/14 10:24:23;;;;;;;4.82;1.95;;;;;;;;;;4936845;29;20119;-77
2023/07/14 10:26:55;;;;;;;4.25;1.85;;;;;;;;;;4905095;29;20058;-78
2023/07/14 10:29:22;;;;;;;3.72;2.05;;;;;;;;;;4936354;29;20028;-77
2023/07/14 10:31:52;;;;;;;2.33;1.77;;;;;;;;;;4936428;29;20139;-77
2023/07/14 10:34:22;;;;;;;3.83;2.00;;;;;;;;;;4924825;29;20028;-78
2023/07/14 10:36:50;;;;;;;2.75;1.95;;;;;;;;;;4946176;28;20039;-77
2023/07/14 10:39:37;;;;;;;2.95;2.08;;;;;;;;;;4963456;28;20126;-77
2023/07/14 10:42:06;;;;;;;4.75;2.10;;;;;;;;;;4964536;28;20027;-78
2023/07/14 10:44:38;;;;;;;8.95;2.10;;;;;;;;;;4933265;28;20486;-79
2023/07/14 10:47:17;;;;;;;3.50;2.05;;;;;;;;;;5034647;28;20021;-80
2023/07/14 10:50:05;;;;;;;4.97;2.17;;;;;;;;;;5037027;28;20542;-79
2023/07/14 10:52:37;;;;;;;3.55;1.92;;;;;;;;;;5033488;28;20034;-78
2023/07/14 10:55:12;;;;;;;2.90;1.67;;;;;;;;;;5050862;28;20455;-78
2023/07/14 10:57:42;;;;;;;3.28;1.95;;;;;;;;;;5050730;28;20025;-78
2023/07/14 11:01:07;;;;;;;6.95;2.10;;;;;;;;;;5034244;28;20021;-78
2023/07/14 11:03:50;;;;;;;2.88;1.92;;;;;;;;;;4993790;28;20088;-78
2023/07/14 11:06:21;;;;;;;2.83;1.90;;;;;;;;;;4977404;28;20478;-78
2023/07/14 11:08:51;;;;;;;3.17;1.92;;;;;;;;;;5018319;28;20526;-79
2023/07/14 11:11:37;;;;;;;3.47;1.88;;;;;;;;;;5049846;28;20082;-77
2023/07/14 11:14:30;;;;;;;2.83;1.73;;;;;;;;;;5034839;28;20021;-78
2023/07/14 11:17:13;;;;;;;4.07;1.65;;;;;;;;;;5050406;28;20519;-79
2023/07/14 11:19:58;;;;;;;2.53;1.80;;;;;;;;;;5050175;28;20026;-79
2023/07/14 11:22:36;;;;;;;3.40;2.15;;;;;;;;;;5033397;28;20124;-79
2023/07/14 11:25:20;;;;;;;4.38;2.10;;;;;;;;;;5033385;28;20033;-79
2023/07/14 11:27:54;;;;;;;5.03;2.30;;;;;;;;;;5034592;28;20025;-79
2023/07/14 11:30:24;;;;;;;3.72;2.00;;;;;;;;;;5036253;28;20053;-78
2023/07/14 11:32:56;;;;;;;2.92;1.80;;;;;;;;;;5052637;28;20040;-80
2023/07/14 11:35:30;;;;;;;7.03;2.30;;;;;;;;;;5054329;28;20029;-78
2023/07/14 11:38:27;;;;;;;3.25;2.03;;;;;;;;;;5054567;28;20353;-78
2023/07/14 11:40:53;;;;;;;5.78;2.40;;;;;;;;;;5053135;28;20027;-78
2023/07/14 11:43:21;;;;;;;2.65;1.70;;;;;;;;;;5036530;28;20029;-79
2023/07/14 11:46:17;;;;;;;3.45;1.90;;;;;;;;;;5053354;28;20078;-79
2023/07/14 11:49:02;;;;;;;4.03;2.20;;;;;;;;;;5020742;28;20087;-78
2023/07/14 11:51:50;;;;;;;2.72;1.70;;;;;;;;;;5052976;28;20032;-79
2023/07/14 11:54:21;;;;;;;3.42;1.85;;;;;;;;;;5053200;28;20029;-78
2023/07/14 11:57:00;;;;;;;2.88;1.73;;;;;;;;;;5053387;28;20067;-79
2023/07/14 11:59:28;;;;;;;4.13;1.65;;;;;;;;;;5036678;28;20100;-78
2023/07/14 12:01:55;;;;;;;2.78;1.80;;;;;;;;;;5053605;28;20032;-78
2023/07/14 12:04:32;;;;;;;4.82;1.90;;;;;;;;;;5053420;28;20060;-79
2023/07/14 12:07:19;;;;;;;3.83;1.70;;;;;;;;;;5037824;28;20029;-78
2023/07/14 12:09:59;;;;;;;2.92;1.88;;;;;;;;;;5054193;28;20021;-79
2023/07/14 12:12:25;;;;;;;3.58;1.83;;;;;;;;;;5036405;28;20028;-77
2023/07/14 12:14:52;;;;;;;3.05;1.90;;;;;;;;;;5035611;28;20036;-80
2023/07/14 12:17:36;;;;;;;3.30;1.77;;;;;;;;;;5054214;28;20033;-78
2023/07/14 12:20:08;;;;;;;;;;;;;;;;;;5036489;28;20025;-79
2023/07/14 12:22:42;;;;;;;2.42;1.60;;;;;;;;;;5038178;28;19908;-82
2023/07/14 12:25:16;;;;;;;11.40;1.80;;;;;;;;;;5036145;28;20048;-77
2023/07/14 12:27:53;;;;;;;5.88;2.08;;;;;;;;;;5052773;28;20082;-77
2023/07/14 12:30:21;;;;;;;3.35;1.80;;;;;;;;;;5052781;28;20056;-78
2023/07/14 12:32:49;;;;;;;2.85;1.98;;;;;;;;;;5036666;28;20392;-78
2023/07/14 12:35:16;;;;;;;4.90;2.42;;;;;;;;;;5053741;28;20426;-77
2023/07/14 12:37:42;;;;;;;3.13;1.92;;;;;;;;;;5053854;28;20029;-77
2023/07/14 12:40:18;;;;;;;5.47;2.00;;;;;;;;;;5037941;28;20025;-78
2023/07/14 12:42:44;;;;;;;4.03;2.25;;;;;;;;;;5053789;28;20028;-78
2023/07/14 12:45:11;;;;;;;5.90;2.25;;;;;;;;;;5036176;28;20033;-78
2023/07/14 12:47:43;;;;;;;10.75;2.30;;;;;;;;;;5036785;28;20044;-78
2023/07/14 12:50:15;;;;;;;3.95;2.40;;;;;;;;;;5058005;28;20028;-78
2023/07/14 12:52:41;;;;;;;8.30;2.33;;;;;;;;;;5037951;28;20039;-77
2023/07/14 12:55:12;;;;;;;3.45;2.17;;;;;;;;;;5063402;28;20037;-77
2023/07/14 12:57:39;;;;;;;4.25;1.80;;;;;;;;;;5061634;28;20025;-78
2023/07/14 13:00:26;;;;;;;6.68;2.10;;;;;;;;;;5053221;28;20036;-78
2023/07/14 13:02:53;;;;;;;6.93;2.00;;;;;;;;;;5053211;28;20025;-78
2023/07/14 13:05:26;;;;;;;4.95;1.90;;;;;;;;;;5052566;28;20033;-78
2023/07/14 13:07:54;;;;;;;3.20;1.75;;;;;;;;;;5052133;28;20029;-78
2023/07/14 13:10:21;;;;;;;3.08;1.90;;;;;;;;;;5035297;28;20033;-77
2023/07/14 13:12:48;;;;;;;4.22;1.80;;;;;;;;;;5052218;28;20033;-77
2023/07/14 13:15:15;;;;;;;2.50;1.80;;;;;;;;;;5051997;28;20037;-78
2023/07/14 13:17:41;;;;;;;3.08;2.00;;;;;;;;;;5052223;28;20116;-77
2023/07/14 13:20:27;;;;;;;5.40;2.00;;;;;;;;;;5035389;28;20052;-78
2023/07/14 13:23:11;;;;;;;2.65;1.77;;;;;;;;;;5035235;28;20112;-78
2023/07/14 13:25:48;;;;;;;2.60;1.80;;;;;;;;;;5055445;28;20052;-78
2023/07/14 13:28:54;;;;;;;2.92;1.60;;;;;;;;;;5051890;28;20040;-78
2023/07/14 13:31:22;;;;;;;2.35;1.60;;;;;;;;;;5034723;28;20052;-78
2023/07/14 13:33:48;;;;;;;1.90;1.50;;;;;;;;;;5051683;28;20037;-77
2023/07/14 13:36:21;;;;;;;3.05;1.60;;;;;;;;;;5053196;28;20029;-78
2023/07/14 13:38:47;;;;;;;;;;;;;;;;;;5035388;28;20043;-78
2023/07/14 13:41:18;;;;;;;2.20;1.70;;;;;;;;;;5035099;28;19908;-78
2023/07/14 13:43:48;;;;;;;2.10;1.55;;;;;;;;;;5034985;28;20270;-78
2023/07/14 13:46:24;;;;;;;3.42;1.90;;;;;;;;;;5051939;28;20036;-78
2023/07/14 13:48:51;;;;;;;2.50;1.55;;;;;;;;;;5052143;28;20025;-78
2023/07/14 13:51:22;;;;;;;2.42;1.50;;;;;;;;;;5042562;28;20021;-78
2023/07/14 13:53:49;;;;;;;2.45;1.70;;;;;;;;;;5064230;28;20029;-78
2023/07/14 13:56:17;;;;;;;2.17;1.50;;;;;;;;;;5066308;28;20033;-77
2023/07/14 13:58:44;;;;;;;3.38;1.55;;;;;;;;;;5038900;28;20059;-78
2023/07/14 14:01:11;;;;;;;2.22;1.70;;;;;;;;;;5022115;28;20112;-78
2023/07/14 14:03:37;;;;;;;2.33;1.67;;;;;;;;;;5055172;28;20029;-78
2023/07/14 14:06:02;;;;;;;2.75;1.50;;;;;;;;;;5038627;28;20079;-78
2023/07/14 14:08:27;;;;;;;1.95;1.60;;;;;;;;;;5038153;28;20043;-78
2023/07/14 14:10:53;;;;;;;1.65;1.50;;;;;;;;;;5056145;28;20104;-78
2023/07/14 14:13:18;;;;;;;3.65;1.55;;;;;;;;;;5037950;28;20425;-78
2023/07/14 14:15:44;;;;;;;2.53;1.45;;;;;;;;;;5055990;28;20040;-78
2023/07/14 14:18:13;;;;;;;3.45;1.98;;;;;;;;;;5056026;28;20376;-78
2023/07/14 14:20:39;;;;;;;2.00;1.50;;;;;;;;;;5038078;28;20039;-78
2023/07/14 14:23:05;;;;;;;4.43;1.75;;;;;;;;;;5055103;28;20025;-78
2023/07/14 14:25:32;;;;;;;1.65;1.40;;;;;;;;;;5054615;28;20024;-78
2023/07/14 14:27:57;;;;;;;4.50;1.73;;;;;;;;;;5054587;28;20106;-78
2023/07/14 14:30:45;;;;;;;4.03;1.63;;;;;;;;;;5054736;28;20107;-79
2023/07/14 14:33:13;;;;;;;2.60;1.85;;;;;;;;;;5050944;28;20037;-78
2023/07/14 14:35:38;;;;;;;1.55;1.30;;;;;;;;;;5034480;28;20484;-78
2023/07/14 14:38:17;;;;;;;2.08;1.63;;;;;;;;;;5034363;28;20044;-78
2023/07/14 14:40:43;;;;;;;2.35;1.67;;;;;;;;;;5035474;28;20037;-78
2023/07/14 14:43:26;;;;;;;3.08;1.63;;;;;;;;;;5035559;28;20025;-78
2023/07/14 14:45:54;;;;;;;4.27;1.80;;;;;;;;;;5035492;28;20025;-78
2023/07/14 14:48:20;;;;;;;1.98;1.40;;;;;;;;;;5035503;28;20629;-78
2023/07/14 14:50:47;;;;;;;2.25;1.65;;;;;;;;;;5036963;28;20029;-78
2023/07/14 14:53:13;;;;;;;3.58;1.60;;;;;;;;;;5050949;28;20522;-78
2023/07/14 14:55:39;;;;;;;1.63;1.40;;;;;;;;;;5035108;28;20040;-77
2023/07/14 14:58:05;;;;;;;2.13;1.50;;;;;;;;;;5034346;28;20033;-78
2023/07/14 15:00:33;;;;;;;5.75;1.50;;;;;;;;;;5034273;28;20423;-78
2023/07/14 15:02:58;;;;;;;1.98;1.50;;;;;;;;;;5050721;28;20017;-78